This is the latest recevied weather packets stored in our database for station/object N1HRK. If no packets are shown the sender has not sent any weather packets the latest 10 day(s).
| Time | Temp. | Humidity | Pressure | Rain* | Wind** | Luminosity | Snow |
|---|---|---|---|---|---|---|---|
| 1777693924 | 10.56° C | 69% | 1012.2 hPa | 0 mm | - | - | - |
| 1777693323 | 11.11° C | 68% | 1012.3 hPa | 0 mm | - | - | - |
| 1777692724 | 10.56° C | 69% | 1012.3 hPa | 0 mm | - | - | - |
| 1777692123 | 10.56° C | 69% | 1012.2 hPa | 0 mm | - | - | - |
| 1777691523 | 11.11° C | 69% | 1012.3 hPa | 0 mm | - | - | - |
| 1777690923 | 11.11° C | 68% | 1012.2 hPa | 0 mm | - | - | - |
| 1777690324 | 11.11° C | 68% | 1012.1 hPa | 0 mm | - | - | - |
| 1777689723 | 11.11° C | 68% | 1011.9 hPa | 0 mm | - | - | - |
| 1777689123 | 11.11° C | 67% | 1011.8 hPa | 0 mm | - | - | - |
| 1777688524 | 11.11° C | 67% | 1011.7 hPa | 0 mm | - | - | - |
| 1777687923 | 11.11° C | 67% | 1011.8 hPa | 0 mm | - | - | - |
| 1777687324 | 11.11° C | 67% | 1011.8 hPa | 0 mm | - | - | - |
| 1777686723 | 11.11° C | 66% | 1011.8 hPa | 0 mm | - | - | - |
| 1777686124 | 11.11° C | 66% | 1011.8 hPa | 0 mm | - | - | - |
| 1777685522 | 11.67° C | 65% | 1011.7 hPa | 0 mm | - | - | - |
| 1777684923 | 11.67° C | 64% | 1011.6 hPa | 0 mm | - | - | - |
| 1777684324 | 12.22° C | 63% | 1011.5 hPa | 0 mm | - | - | - |
| 1777683724 | 12.22° C | 62% | 1011.4 hPa | 0 mm | - | - | - |
| 1777683124 | 12.22° C | 60% | 1011.1 hPa | 0 mm | - | - | - |
| 1777682523 | 12.78° C | 59% | 1011.1 hPa | 0 mm | - | - | - |
| 1777681924 | 12.78° C | 57% | 1010.8 hPa | 0 mm | - | - | - |
| 1777681323 | 13.33° C | 53% | 1010.6 hPa | 0 mm | - | - | - |
| 1777680722 | 13.33° C | 48% | 1010.4 hPa | 0 mm | - | - | - |
| 1777680123 | 13.33° C | 47% | 1010.2 hPa | 0 mm | - | - | - |
| 1777679524 | 13.89° C | 46% | 1010.1 hPa | 0 mm | - | - | - |
* Rain latest hour (hover to see other rain measurements)
** Current wind speed in m/s (hover to see current wind gust speed)